Time;durP1;ratioP1;P1;durP2;ratioP2;P2;SDS_P1;SDS_P2;PMS_P1;PMS_P2;Temp;Humidity;BMP_temperature;BMP_pressure;BME280_temperature;BME280_humidity;BME280_pressure;Samples;Min_cycle;Max_cycle;Signal;HPM_P1;HPM_P2
2021/08/20 00:00:05;;;;;;;2.75;1.08;;;;;;;18.06;98.57;100702.00;4952587;28;20032;-67
2021/08/20 00:02:41;;;;;;;1.90;0.98;;;;;;;17.88;99.65;100699.47;4951375;28;20050;-68
2021/08/20 00:05:07;;;;;;;3.17;1.05;;;;;;;17.89;100.00;100694.75;4948467;28;20118;-67
2021/08/20 00:07:33;;;;;;;1.30;0.80;;;;;;;17.77;100.00;100700.69;4946970;28;20122;-67
2021/08/20 00:10:03;;;;;;;2.67;1.00;;;;;;;17.77;99.83;100700.69;4952490;28;20110;-68
2021/08/20 00:12:28;;;;;;;4.68;1.13;;;;;;;17.60;100.00;100696.94;4966068;28;20125;-69
2021/08/20 00:14:55;;;;;;;1.38;0.77;;;;;;;17.30;100.00;100693.25;4943648;28;20039;-68
2021/08/20 00:17:25;;;;;;;3.28;1.00;;;;;;;17.41;100.00;100683.84;4952524;28;20058;-68
2021/08/20 00:19:51;;;;;;;2.50;0.75;;;;;;;17.50;100.00;100700.50;4950469;28;20031;-68
2021/08/20 00:22:17;;;;;;;1.83;0.98;;;;;;;17.28;100.00;100692.88;4951723;28;20505;-68
2021/08/20 00:24:43;;;;;;;2.15;1.08;;;;;;;17.46;100.00;100702.47;4951523;28;20510;-68
2021/08/20 00:27:08;;;;;;;1.63;1.05;;;;;;;17.58;100.00;100702.03;4951834;28;20067;-69
2021/08/20 00:29:34;;;;;;;2.22;1.10;;;;;;;17.64;100.00;100702.38;4966694;28;20086;-68
2021/08/20 00:32:02;;;;;;;2.47;1.15;;;;;;;17.57;100.00;100703.22;4947371;28;20038;-68
2021/08/20 00:34:27;;;;;;;2.15;0.88;;;;;;;17.38;100.00;100692.78;4943078;28;20473;-68
2021/08/20 00:36:53;;;;;;;1.20;1.10;;;;;;;17.39;100.00;100697.06;4948864;28;20035;-69
2021/08/20 00:39:19;;;;;;;1.60;0.90;;;;;;;17.40;100.00;100693.16;4955139;28;20035;-69
2021/08/20 00:41:46;;;;;;;1.85;0.95;;;;;;;17.39;100.00;100697.06;4960034;28;20130;-68
2021/08/20 00:44:11;;;;;;;1.38;0.88;;;;;;;17.25;100.00;100688.22;4951662;28;20078;-69
2021/08/20 00:46:38;;;;;;;1.60;0.93;;;;;;;17.24;100.00;100694.84;4949209;28;20062;-69
2021/08/20 00:49:05;;;;;;;1.45;0.77;;;;;;;17.31;100.00;100698.28;4966700;28;20101;-67
2021/08/20 00:51:35;;;;;;;2.80;1.13;;;;;;;17.34;100.00;100702.16;4951014;28;20031;-69
2021/08/20 00:54:02;;;;;;;2.28;1.10;;;;;;;17.29;100.00;100697.13;4938227;28;20028;-68
2021/08/20 00:56:28;;;;;;;1.83;1.10;;;;;;;17.36;100.00;100694.38;4951951;28;20132;-69
2021/08/20 00:58:54;;;;;;;3.70;1.13;;;;;;;17.43;100.00;100697.81;4947306;28;20035;-69
2021/08/20 01:01:20;;;;;;;2.03;0.93;;;;;;;17.31;100.00;100692.06;4947589;28;20500;-69
2021/08/20 01:03:46;;;;;;;2.28;0.98;;;;;;;17.21;100.00;100690.97;4951337;28;20039;-69
2021/08/20 01:06:13;;;;;;;3.08;1.17;;;;;;;17.29;100.00;100689.75;4965791;28;20035;-68
2021/08/20 01:08:38;;;;;;;3.67;1.15;;;;;;;17.37;100.00;100688.53;4949432;28;20115;-69
2021/08/20 01:11:07;;;;;;;4.28;1.27;;;;;;;17.44;100.00;100691.19;4939101;28;20605;-69
2021/08/20 01:13:39;;;;;;;4.82;1.10;;;;;;;17.44;100.00;100693.91;4972562;22;20089;-67
2021/08/20 01:16:05;;;;;;;1.48;1.02;;;;;;;17.47;100.00;100686.91;4997418;28;20043;-68
2021/08/20 01:18:33;;;;;;;5.57;1.15;;;;;;;17.50;100.00;100695.06;4996605;28;20026;-68
2021/08/20 01:21:10;;;;;;;1.30;0.93;;;;;;;17.49;100.00;100692.75;4994478;28;20073;-68
2021/08/20 01:23:37;;;;;;;;;;;;;;;17.28;100.00;100693.66;5015228;28;20445;-68
2021/08/20 01:26:03;;;;;;;1.80;0.90;;;;;;;17.43;100.00;100703.28;4992159;28;20416;-67
2021/08/20 01:28:29;;;;;;;2.83;1.17;;;;;;;17.40;100.00;100695.88;5009672;28;20045;-67
2021/08/20 01:31:04;;;;;;;3.92;1.60;;;;;;;17.34;100.00;100694.78;4991951;28;20046;-68
2021/08/20 01:33:30;;;;;;;2.97;1.27;;;;;;;17.30;100.00;100698.69;5006313;28;20417;-68
2021/08/20 01:35:57;;;;;;;3.33;1.35;;;;;;;17.27;100.00;100697.53;4992949;28;20051;-67
2021/08/20 01:38:24;;;;;;;2.50;1.30;;;;;;;17.35;100.00;100699.03;5009794;28;20398;-68
2021/08/20 01:40:50;;;;;;;2.20;1.25;;;;;;;17.38;100.00;100702.91;5008616;28;20038;-67
2021/08/20 01:43:16;;;;;;;3.10;1.20;;;;;;;17.36;100.00;100697.88;5008694;28;20035;-67
2021/08/20 01:45:43;;;;;;;1.40;0.98;;;;;;;17.29;100.00;100697.91;4992146;28;20065;-68
2021/08/20 01:48:09;;;;;;;2.22;1.35;;;;;;;17.29;100.00;100689.75;4991494;28;20109;-68
2021/08/20 01:50:39;;;;;;;7.70;1.30;;;;;;;17.13;100.00;100681.28;4992578;28;20033;-67
2021/08/20 01:53:12;;;;;;;4.83;1.40;;;;;;;17.19;100.00;100679.69;4993923;28;20060;-67
2021/08/20 01:55:41;;;;;;;2.10;1.20;;;;;;;17.22;100.00;100678.13;5006457;28;20034;-68
2021/08/20 01:58:06;;;;;;;3.72;1.48;;;;;;;17.26;100.00;100682.38;5008085;28;20037;-68
2021/08/20 02:00:32;;;;;;;4.13;1.60;;;;;;;17.31;100.00;100679.22;5008644;28;20382;-69
2021/08/20 02:02:58;;;;;;;4.00;1.55;;;;;;;17.17;100.00;100674.66;5008575;28;20076;-69
2021/08/20 02:05:24;;;;;;;3.50;1.38;;;;;;;17.19;100.00;100673.50;5007799;28;20084;-69
2021/08/20 02:07:50;;;;;;;2.50;1.52;;;;;;;17.18;100.00;100675.44;5009035;28;20466;-69
2021/08/20 02:10:19;;;;;;;2.95;1.50;;;;;;;17.23;100.00;100685.13;4992544;28;20030;-69
2021/08/20 02:12:46;;;;;;;3.42;1.40;;;;;;;17.27;100.00;100672.25;5004147;28;20030;-69
2021/08/20 02:15:12;;;;;;;4.85;1.70;;;;;;;17.25;100.00;100683.53;5008842;28;20038;-69
2021/08/20 02:17:38;;;;;;;6.55;1.48;;;;;;;17.22;100.00;100687.06;5007831;28;20504;-69
2021/08/20 02:20:05;;;;;;;3.65;1.52;;;;;;;17.23;100.00;100693.31;5007448;28;20030;-69
2021/08/20 02:22:31;;;;;;;4.53;1.33;;;;;;;17.28;100.00;100687.44;4991760;28;20026;-70
2021/08/20 02:24:57;;;;;;;2.88;1.25;;;;;;;17.24;100.00;100686.66;5007796;28;20121;-70
2021/08/20 02:27:24;;;;;;;3.25;1.52;;;;;;;17.28;100.00;100684.69;4992171;28;20113;-69
2021/08/20 02:29:55;;;;;;;2.40;1.45;;;;;;;17.32;100.00;100683.53;5007182;28;20626;-70
2021/08/20 02:32:21;;;;;;;4.63;2.17;;;;;;;17.23;100.00;100672.28;5008126;28;20085;-69
2021/08/20 02:34:47;;;;;;;4.07;1.40;;;;;;;17.22;100.00;100676.19;5008632;28;20026;-69
2021/08/20 02:37:14;;;;;;;2.90;1.40;;;;;;;17.23;100.00;100672.28;4990840;28;20038;-69
2021/08/20 02:39:41;;;;;;;3.92;1.67;;;;;;;17.23;100.00;100680.44;4988853;28;20053;-70
2021/08/20 02:42:06;;;;;;;2.08;1.23;;;;;;;17.26;100.00;100687.06;4991093;28;20034;-69
2021/08/20 02:44:32;;;;;;;2.83;1.40;;;;;;;17.20;100.00;100686.69;4991985;28;20088;-69
2021/08/20 02:46:58;;;;;;;2.58;1.52;;;;;;;17.25;100.00;100683.53;4992635;28;20038;-70
2021/08/20 02:49:24;;;;;;;4.05;1.77;;;;;;;17.28;100.00;100677.31;4991787;28;20486;-69
2021/08/20 02:51:50;;;;;;;2.97;1.80;;;;;;;17.20;100.00;100673.09;4991389;28;20034;-69
2021/08/20 02:54:19;;;;;;;2.40;1.23;;;;;;;17.17;100.00;100673.88;5007391;28;20482;-69
2021/08/20 02:56:48;;;;;;;1.77;1.20;;;;;;;17.22;100.00;100667.25;5006584;28;20125;-69
2021/08/20 02:59:18;;;;;;;2.78;1.45;;;;;;;17.24;100.00;100675.78;5007055;28;20026;-69
2021/08/20 03:01:49;;;;;;;3.13;1.52;;;;;;;17.21;100.00;100679.31;5006827;28;20534;-69
2021/08/20 03:04:16;;;;;;;2.35;1.23;;;;;;;17.23;100.00;100676.97;5006980;28;20100;-69
2021/08/20 03:06:43;;;;;;;5.47;1.50;;;;;;;17.18;100.00;100680.88;5007250;28;20033;-69
2021/08/20 03:09:18;;;;;;;2.90;1.63;;;;;;;17.22;100.00;100689.81;5007745;28;20038;-69
2021/08/20 03:11:47;;;;;;;3.30;1.17;;;;;;;17.26;100.00;100687.06;5007330;28;20026;-69
2021/08/20 03:14:14;;;;;;;3.60;1.35;;;;;;;17.24;100.00;100683.94;4989576;28;20054;-69
2021/08/20 03:16:42;;;;;;;4.85;1.75;;;;;;;17.16;100.00;100675.06;5006865;28;20113;-69
2021/08/20 03:19:08;;;;;;;2.78;1.13;;;;;;;17.20;100.00;100669.59;4975040;28;20125;-69
2021/08/20 03:21:36;;;;;;;3.80;1.67;;;;;;;17.15;100.00;100679.72;5005754;28;20030;-70
2021/08/20 03:24:05;;;;;;;3.60;1.65;;;;;;;17.17;100.00;100682.81;4992194;28;20038;-70
2021/08/20 03:26:34;;;;;;;2.80;1.45;;;;;;;17.18;100.00;100675.44;4990834;28;20053;-70
2021/08/20 03:29:02;;;;;;;3.08;1.23;;;;;;;17.15;100.00;100674.28;5007761;28;20144;-70
2021/08/20 03:31:28;;;;;;;2.50;1.67;;;;;;;17.13;100.00;100686.72;4986046;28;20053;-70
2021/08/20 03:33:55;;;;;;;1.92;1.50;;;;;;;17.11;100.00;100687.13;5006157;28;20104;-70
2021/08/20 03:36:24;;;;;;;3.03;1.13;;;;;;;17.09;100.00;100683.28;4979611;28;20484;-70
2021/08/20 03:38:54;;;;;;;3.50;1.38;;;;;;;17.04;100.00;100675.50;4984436;28;20027;-70
2021/08/20 03:41:22;;;;;;;3.33;1.50;;;;;;;17.06;100.00;100678.59;4987316;28;20048;-70
2021/08/20 03:44:05;;;;;;;3.65;1.40;;;;;;;17.05;100.00;100685.25;4985170;28;20033;-70
2021/08/20 03:46:37;;;;;;;2.47;1.30;;;;;;;17.09;100.00;100683.28;4986950;28;20487;-70
2021/08/20 03:49:03;;;;;;;2.75;1.50;;;;;;;17.10;100.00;100687.53;4992812;28;20050;-70
2021/08/20 03:51:29;;;;;;;9.40;1.70;;;;;;;17.00;100.00;100685.63;5005093;28;20026;-70
2021/08/20 03:53:54;;;;;;;4.68;1.25;;;;;;;17.02;100.00;100686.03;5006325;28;20113;-70
2021/08/20 03:56:20;;;;;;;2.58;1.27;;;;;;;17.02;100.00;100686.81;4999968;28;20053;-70
2021/08/20 03:59:01;;;;;;;4.67;1.70;;;;;;;17.01;100.00;100695.38;4990631;28;20124;-70
2021/08/20 04:01:29;;;;;;;2.25;1.58;;;;;;;16.96;100.00;100684.88;4998620;28;20812;-70
2021/08/20 04:03:57;;;;;;;3.40;1.30;;;;;;;16.97;100.00;100691.88;5001904;28;20505;-70
2021/08/20 04:06:34;;;;;;;2.15;1.33;;;;;;;16.98;100.00;100683.31;5006142;28;20037;-70
2021/08/20 04:09:00;;;;;;;2.60;1.25;;;;;;;16.98;100.00;100682.53;5001438;28;20035;-70
2021/08/20 04:11:44;;;;;;;2.55;1.50;;;;;;;16.91;100.00;100685.31;4988997;28;20045;-70
2021/08/20 04:14:32;;;;;;;3.05;1.42;;;;;;;16.92;100.00;100675.97;4988027;28;20081;-70
2021/08/20 04:16:58;;;;;;;4.05;1.77;;;;;;;16.87;100.00;100684.53;5006065;28;20030;-70
2021/08/20 04:19:24;;;;;;;3.25;1.50;;;;;;;16.89;100.00;100674.03;5005765;28;20030;-70
2021/08/20 04:21:50;;;;;;;4.60;1.58;;;;;;;16.94;100.00;100679.06;5004974;28;20038;-70
2021/08/20 04:24:17;;;;;;;3.22;1.70;;;;;;;16.93;100.00;100683.75;4982034;28;20140;-70
2021/08/20 04:26:46;;;;;;;2.92;1.67;;;;;;;16.91;100.00;100690.75;4997122;28;20035;-70
2021/08/20 04:29:30;;;;;;;3.35;1.70;;;;;;;16.71;100.00;100698.59;5003874;28;20049;-70
2021/08/20 04:32:11;;;;;;;3.95;1.48;;;;;;;16.77;100.00;100699.75;4990648;28;20038;-70
2021/08/20 04:34:52;;;;;;;3.42;1.50;;;;;;;16.83;100.00;100702.84;4989145;28;20034;-70
2021/08/20 04:37:40;;;;;;;6.93;1.90;;;;;;;16.85;100.00;100697.78;4991228;28;20109;-70
2021/08/20 04:40:32;;;;;;;7.13;2.05;;;;;;;16.88;100.00;100705.91;4988955;28;20046;-70
2021/08/20 04:43:18;;;;;;;4.55;1.77;;;;;;;16.74;100.00;100708.69;4986403;28;20046;-70
2021/08/20 04:46:00;;;;;;;2.72;1.58;;;;;;;16.75;100.00;100714.91;4981331;28;20034;-70
2021/08/20 04:48:52;;;;;;;;;;;;;;;16.62;100.00;100719.22;4987883;28;20570;-70
2021/08/20 04:51:40;;;;;;;3.42;1.40;;;;;;;16.74;100.00;100716.84;4985856;28;19945;-70
2021/08/20 04:54:18;;;;;;;3.92;1.63;;;;;;;16.78;100.00;100719.56;5000188;28;20049;-70
2021/08/20 04:56:51;;;;;;;2.60;1.60;;;;;;;16.69;100.00;100721.91;4997162;28;20022;-70
2021/08/20 04:59:17;;;;;;;3.03;1.65;;;;;;;16.69;100.00;100724.63;4984622;28;20703;-70
2021/08/20 05:01:42;;;;;;;3.42;1.25;;;;;;;16.77;100.00;100723.44;4994961;28;20458;-70
2021/08/20 05:04:08;;;;;;;2.10;1.27;;;;;;;16.82;100.00;100723.81;4975494;28;20030;-70
2021/08/20 05:06:34;;;;;;;1.83;1.05;;;;;;;16.85;100.00;100727.69;4974964;28;20045;-70
2021/08/20 05:09:02;;;;;;;3.97;1.35;;;;;;;16.84;100.00;100721.47;4974420;28;20038;-70
2021/08/20 05:11:28;;;;;;;2.38;1.10;;;;;;;16.71;100.00;100725.81;4974692;28;20399;-70
2021/08/20 05:13:55;;;;;;;2.17;1.35;;;;;;;16.68;100.00;100720.38;4978328;28;20109;-70
2021/08/20 05:16:21;;;;;;;2.45;1.13;;;;;;;16.65;100.00;100724.66;4981762;28;20038;-70
2021/08/20 05:18:46;;;;;;;3.58;1.52;;;;;;;16.59;100.00;100720.78;4989002;28;20663;-70
2021/08/20 05:21:11;;;;;;;2.58;1.15;;;;;;;16.69;100.00;100721.91;4988991;28;20495;-70
2021/08/20 05:23:37;;;;;;;1.90;1.02;;;;;;;16.73;100.00;100730.84;4985944;28;20035;-70
2021/08/20 05:26:02;;;;;;;1.52;1.10;;;;;;;16.66;100.00;100730.88;4986813;28;20031;-70
2021/08/20 05:28:30;;;;;;;2.60;1.33;;;;;;;16.69;100.00;100725.41;4988491;28;20490;-70
2021/08/20 05:30:56;;;;;;;2.00;1.38;;;;;;;16.74;100.00;100729.69;4988554;28;20044;-70
2021/08/20 05:33:21;;;;;;;2.65;1.20;;;;;;;16.79;100.00;100730.06;4986870;28;20030;-70
2021/08/20 05:35:47;;;;;;;3.40;1.48;;;;;;;16.81;100.00;100725.00;5001181;28;20030;-71
2021/08/20 05:38:14;;;;;;;2.22;1.05;;;;;;;16.81;100.00;100735.09;4984774;28;20553;-71
2021/08/20 05:40:40;;;;;;;4.95;1.60;;;;;;;16.83;100.00;100735.47;4982924;28;20553;-70
2021/08/20 05:43:05;;;;;;;2.47;1.20;;;;;;;16.77;100.00;100737.03;4982043;28;20066;-70
2021/08/20 05:45:36;;;;;;;2.70;1.08;;;;;;;16.77;100.00;100739.75;4996229;28;20034;-70
2021/08/20 05:48:06;;;;;;;2.00;1.05;;;;;;;16.80;100.00;100736.28;4986387;28;20030;-70
2021/08/20 05:50:31;;;;;;;1.50;1.00;;;;;;;16.78;100.00;100725.00;4988536;28;20023;-70
2021/08/20 05:52:57;;;;;;;2.35;0.98;;;;;;;16.74;100.00;100733.16;4989158;28;20045;-70
2021/08/20 05:55:25;;;;;;;2.25;1.25;;;;;;;16.74;100.00;100735.13;4991907;28;20407;-70
2021/08/20 05:57:50;;;;;;;2.15;1.40;;;;;;;16.76;100.00;100736.25;4990756;28;20042;-71
2021/08/20 06:00:16;;;;;;;2.38;1.13;;;;;;;16.75;100.00;100740.16;4993375;28;20558;-71
2021/08/20 06:02:52;;;;;;;2.03;1.02;;;;;;;16.78;100.00;100746.78;5006249;28;20158;-70
2021/08/20 06:05:19;;;;;;;1.60;0.90;;;;;;;16.80;100.00;100750.63;5002323;28;20039;-71
2021/08/20 06:07:45;;;;;;;2.10;1.08;;;;;;;16.77;100.00;100751.44;5004585;28;20133;-70
2021/08/20 06:10:11;;;;;;;1.30;0.88;;;;;;;16.76;100.00;100749.13;4992701;28;20057;-70
2021/08/20 06:12:37;;;;;;;3.05;0.95;;;;;;;16.75;100.00;100745.59;4988311;28;20047;-70
2021/08/20 06:15:23;;;;;;;2.55;1.10;;;;;;;16.79;100.00;100746.38;4976182;28;20030;-70
2021/08/20 06:17:51;;;;;;;1.65;1.00;;;;;;;16.55;100.00;100747.22;4971115;28;20055;-70
2021/08/20 06:20:17;;;;;;;1.85;0.90;;;;;;;16.59;100.00;100752.66;4965377;28;20138;-70
2021/08/20 06:22:42;;;;;;;2.92;0.98;;;;;;;16.70;100.00;100765.06;4970328;28;20118;-70
2021/08/20 06:25:08;;;;;;;2.88;1.00;;;;;;;16.71;100.00;100757.66;4970176;28;20416;-70
2021/08/20 06:27:34;;;;;;;2.03;1.00;;;;;;;16.82;100.00;100763.88;4968337;28;20481;-70
2021/08/20 06:30:03;;;;;;;1.17;0.98;;;;;;;16.85;100.00;100761.13;4968852;28;20085;-70
2021/08/20 06:32:28;;;;;;;0.93;0.60;;;;;;;16.79;100.00;100757.25;4969558;28;20038;-70
2021/08/20 06:34:54;;;;;;;1.50;0.88;;;;;;;16.82;100.00;100761.91;4969443;28;20069;-70
2021/08/20 06:37:19;;;;;;;1.27;0.80;;;;;;;16.85;100.00;100766.56;4970958;28;20043;-70
2021/08/20 06:39:48;;;;;;;1.33;0.80;;;;;;;16.85;100.00;100760.34;4967920;28;20039;-71
2021/08/20 06:42:15;;;;;;;0.95;0.65;;;;;;;16.87;100.00;100760.72;4952887;28;20436;-70
2021/08/20 06:44:40;;;;;;;1.42;1.02;;;;;;;17.01;100.00;100761.44;4955351;28;20134;-70
2021/08/20 06:47:06;;;;;;;1.38;0.82;;;;;;;17.00;100.00;100757.16;4970907;28;20123;-70
2021/08/20 06:49:31;;;;;;;2.70;0.93;;;;;;;16.93;100.00;100754.50;4968271;28;20133;-70
2021/08/20 06:51:57;;;;;;;1.77;0.75;;;;;;;16.82;100.00;100755.69;4970043;28;20046;-70
2021/08/20 06:54:26;;;;;;;1.33;0.93;;;;;;;16.90;100.00;100757.19;4977352;28;20521;-70
2021/08/20 06:56:51;;;;;;;3.08;1.30;;;;;;;17.00;100.00;100759.09;4991680;28;20039;-70
2021/08/20 06:59:17;;;;;;;1.77;0.90;;;;;;;16.92;100.00;100766.53;4990694;28;20037;-70
2021/08/20 07:01:42;;;;;;;0.75;0.52;;;;;;;16.98;100.00;100766.88;4975412;28;20046;-70
2021/08/20 07:04:10;;;;;;;1.25;0.80;;;;;;;17.05;100.00;100767.63;4974299;28;20022;-70
2021/08/20 07:06:35;;;;;;;3.30;0.95;;;;;;;16.97;100.00;100771.56;4977117;28;20694;-70
2021/08/20 07:09:01;;;;;;;1.23;0.88;;;;;;;16.91;100.00;100766.94;4974029;28;20035;-70
2021/08/20 07:11:26;;;;;;;1.33;0.90;;;;;;;16.96;100.00;100772.75;4988714;28;20030;-70
2021/08/20 07:14:00;;;;;;;2.45;0.93;;;;;;;16.93;100.00;100781.69;5004552;23;20026;-68
2021/08/20 07:16:26;;;;;;;0.93;0.80;;;;;;;16.81;100.00;100773.19;4991479;28;20169;-67
2021/08/20 07:18:51;;;;;;;0.65;0.43;;;;;;;16.94;100.00;100780.50;4992334;28;20113;-67
2021/08/20 07:21:17;;;;;;;1.50;0.85;;;;;;;17.06;100.00;100782.03;4990571;28;20375;-68
2021/08/20 07:23:42;;;;;;;1.25;0.80;;;;;;;17.14;100.00;100786.28;4991284;28;20526;-67
2021/08/20 07:26:08;;;;;;;1.50;0.75;;;;;;;17.18;100.00;100789.75;4982073;28;20487;-68
2021/08/20 07:28:37;;;;;;;1.10;0.70;;;;;;;17.23;100.00;100788.59;4978586;28;20050;-68
2021/08/20 07:31:06;;;;;;;0.95;0.60;;;;;;;17.24;100.00;100790.13;4973271;28;20089;-67
2021/08/20 07:33:32;;;;;;;1.30;0.68;;;;;;;17.13;100.00;100781.97;4987046;28;20054;-68
2021/08/20 07:35:58;;;;;;;1.35;0.70;;;;;;;17.24;100.00;100785.47;4972880;28;20031;-67
2021/08/20 07:38:23;;;;;;;1.42;0.80;;;;;;;17.23;100.00;100785.84;4972828;28;20475;-66
2021/08/20 07:40:49;;;;;;;1.50;0.68;;;;;;;17.11;100.00;100796.00;4971826;28;20090;-67
2021/08/20 07:43:14;;;;;;;1.17;0.65;;;;;;;17.19;100.00;100796.75;4970365;28;20042;-67
2021/08/20 07:45:40;;;;;;;1.15;0.90;;;;;;;17.37;100.00;100797.44;4969184;28;20047;-68
2021/08/20 07:48:06;;;;;;;0.90;0.77;;;;;;;17.31;100.00;100801.75;4968947;28;20038;-67
2021/08/20 07:50:31;;;;;;;1.20;0.82;;;;;;;17.30;100.00;100797.50;4984070;28;20031;-68
2021/08/20 07:52:56;;;;;;;1.15;0.80;;;;;;;17.26;100.00;100804.88;4971754;28;20058;-66
2021/08/20 07:55:23;;;;;;;1.35;0.70;;;;;;;17.31;100.00;100803.69;4974320;28;20034;-68
2021/08/20 07:57:51;;;;;;;0.65;0.55;;;;;;;17.23;100.00;100799.47;4956269;28;20110;-67
2021/08/20 08:00:25;;;;;;;1.30;0.75;;;;;;;17.26;100.00;100788.56;4976515;28;20050;-68
2021/08/20 08:02:51;;;;;;;1.00;0.63;;;;;;;17.31;100.00;100798.25;4971341;28;20060;-67
2021/08/20 08:05:16;;;;;;;2.13;0.60;;;;;;;17.43;100.00;100804.03;4980485;28;20042;-67
2021/08/20 08:07:42;;;;;;;0.63;0.50;;;;;;;17.54;100.00;100799.31;4982597;28;20054;-67
2021/08/20 08:10:09;;;;;;;0.93;0.55;;;;;;;17.71;100.00;100809.31;4988041;28;20022;-66
2021/08/20 08:12:34;;;;;;;0.70;0.50;;;;;;;17.70;100.00;100810.50;4985763;28;20122;-67
2021/08/20 08:15:00;;;;;;;1.25;0.80;;;;;;;17.73;100.00;100809.72;4983955;28;20474;-67
2021/08/20 08:17:25;;;;;;;0.73;0.50;;;;;;;17.79;100.00;100815.50;4983701;28;20045;-67
2021/08/20 08:19:51;;;;;;;0.50;0.35;;;;;;;17.74;100.00;100819.44;4977468;28;20219;-68
2021/08/20 08:22:17;;;;;;;0.82;0.60;;;;;;;17.82;100.00;100817.44;4981444;28;20372;-68
2021/08/20 08:24:42;;;;;;;3.10;0.70;;;;;;;17.97;100.00;100821.63;4986706;28;20391;-67
2021/08/20 08:27:08;;;;;;;0.70;0.60;;;;;;;17.76;100.00;100819.81;4983809;28;20141;-68
2021/08/20 08:29:36;;;;;;;1.30;0.68;;;;;;;17.75;100.00;100823.69;4986197;28;20034;-68
2021/08/20 08:32:01;;;;;;;1.05;0.60;;;;;;;17.81;100.00;100827.56;4970089;28;20030;-68
2021/08/20 08:34:27;;;;;;;0.88;0.43;;;;;;;17.95;100.00;100830.19;4966285;28;20612;-67
2021/08/20 08:36:52;;;;;;;1.25;0.88;;;;;;;17.92;100.00;100827.50;4967937;28;20038;-67
2021/08/20 08:39:18;;;;;;;0.82;0.52;;;;;;;17.93;100.00;100835.28;4965201;28;20031;-68
2021/08/20 08:41:59;;;;;;;0.70;0.50;;;;;;;17.84;100.00;100832.22;4982511;28;20061;-66
2021/08/20 08:44:24;;;;;;;0.75;0.60;;;;;;;17.84;100.00;100823.28;4982878;28;20038;-68
2021/08/20 08:46:50;;;;;;;1.08;0.70;;;;;;;17.70;100.00;100818.69;4981901;28;20035;-68
2021/08/20 08:49:20;;;;;;;1.00;0.70;;;;;;;17.79;100.00;100824.47;4971045;28;20117;-67
2021/08/20 08:51:46;;;;;;;0.80;0.70;;;;;;;17.86;100.00;100823.66;4959665;28;20078;-67
2021/08/20 08:54:15;;;;;;;1.20;0.80;;;;;;;17.93;100.00;100835.28;4979876;28;20038;-67
2021/08/20 08:56:42;;;;;;;0.95;0.68;;;;;;;17.89;100.00;100839.97;4974517;28;20034;-68
2021/08/20 08:59:08;;;;;;;2.10;0.90;;;;;;;17.87;100.00;100836.88;4970833;28;20041;-67
2021/08/20 09:01:38;;;;;;;2.53;0.77;;;;;;;17.83;100.00;100841.56;4972966;28;20462;-68
2021/08/20 09:04:10;;;;;;;0.95;0.75;;;;;;;17.93;100.00;100840.72;4964218;28;20031;-66
2021/08/20 09:06:44;;;;;;;1.58;0.90;;;;;;;17.88;100.00;100834.94;4963616;28;20065;-68
2021/08/20 09:09:12;;;;;;;0.98;0.68;;;;;;;17.92;100.00;100835.69;4978870;28;20034;-68
2021/08/20 09:11:38;;;;;;;1.33;0.98;;;;;;;17.82;100.00;100840.03;4973094;28;20030;-67
2021/08/20 09:14:06;;;;;;;1.75;0.73;;;;;;;17.87;100.00;100838.81;4969034;28;20514;-67
2021/08/20 09:16:42;;;;;;;1.48;0.80;;;;;;;18.00;100.00;100853.53;4970942;28;20408;-68
2021/08/20 09:19:18;;;;;;;1.40;0.90;;;;;;;18.04;100.00;100857.00;4961480;28;20478;-67
2021/08/20 09:21:53;;;;;;;1.80;1.10;;;;;;;18.08;100.00;100846.84;4970144;28;20030;-67
2021/08/20 09:24:41;;;;;;;2.10;0.98;;;;;;;18.01;100.00;100853.13;4973979;28;20041;-67
2021/08/20 09:27:17;;;;;;;2.55;1.30;;;;;;;18.04;100.00;100849.59;4977945;28;20034;-67
2021/08/20 09:29:58;;;;;;;1.90;1.38;;;;;;;18.03;100.00;100855.47;4964790;28;20062;-67
2021/08/20 09:32:24;;;;;;;2.25;1.30;;;;;;;18.10;100.00;100860.09;4970532;28;20114;-67
2021/08/20 09:34:54;;;;;;;2.03;1.20;;;;;;;18.20;100.00;100848.31;4978759;28;20045;-66
2021/08/20 09:37:21;;;;;;;3.10;1.45;;;;;;;18.31;100.00;100849.03;4988428;28;20027;-66
2021/08/20 09:39:47;;;;;;;3.55;1.88;;;;;;;18.32;100.00;100850.56;4986977;28;20105;-67
2021/08/20 09:42:16;;;;;;;4.00;1.90;;;;;;;18.36;100.00;100852.09;4989978;28;20062;-68
2021/08/20 09:44:42;;;;;;;4.55;1.55;;;;;;;18.37;100.00;100841.97;4980227;28;20119;-67
2021/08/20 09:47:08;;;;;;;3.20;1.52;;;;;;;18.60;100.00;100844.91;4979903;28;20158;-67
2021/08/20 09:49:58;;;;;;;5.50;1.77;;;;;;;18.68;100.00;100841.69;4965749;28;20039;-68
2021/08/20 09:52:29;;;;;;;4.57;2.05;;;;;;;18.58;100.00;100845.28;4970503;28;20046;-67
2021/08/20 09:54:55;;;;;;;5.93;2.03;;;;;;;18.69;100.00;100842.47;4974036;28;20034;-67
2021/08/20 09:57:28;;;;;;;4.13;1.70;;;;;;;18.77;100.00;100852.91;4973873;28;20031;-68
2021/08/20 09:59:55;;;;;;;5.32;2.13;;;;;;;18.62;100.00;100848.00;4965112;28;20050;-68
2021/08/20 10:02:24;;;;;;;3.00;1.73;;;;;;;18.64;100.00;100837.47;4972683;28;20054;-68
2021/08/20 10:04:50;;;;;;;4.05;2.20;;;;;;;18.70;100.00;100844.00;4985286;28;20030;-67
2021/08/20 10:07:18;;;;;;;4.32;2.20;;;;;;;18.67;100.00;100839.38;4988864;28;20505;-68
2021/08/20 10:09:47;;;;;;;3.78;1.92;;;;;;;18.77;100.00;100838.50;4963020;28;20404;-67
2021/08/20 10:12:19;;;;;;;4.28;2.45;;;;;;;18.78;100.00;100837.28;4974955;28;20043;-68
2021/08/20 10:14:45;;;;;;;4.72;2.42;;;;;;;18.82;100.00;100838.81;4967527;28;20049;-68
2021/08/20 10:17:12;;;;;;;5.03;2.55;;;;;;;18.82;100.00;100835.31;4974247;28;20035;-67
2021/08/20 10:19:38;;;;;;;6.90;3.13;;;;;;;18.79;100.00;100844.31;4974180;28;20290;-68
2021/08/20 10:22:05;;;;;;;5.45;2.60;;;;;;;18.80;100.00;100841.19;4972448;28;20058;-67
2021/08/20 10:24:31;;;;;;;6.18;2.70;;;;;;;18.80;100.00;100837.66;4985713;28;20035;-67
2021/08/20 10:26:57;;;;;;;4.40;2.38;;;;;;;18.86;100.00;100846.97;4979953;28;20057;-68
2021/08/20 10:29:26;;;;;;;5.32;2.88;;;;;;;18.81;100.00;100841.97;4990569;28;20038;-68
2021/08/20 10:31:52;;;;;;;5.78;3.00;;;;;;;18.70;100.00;100844.00;4983731;28;20022;-67
2021/08/20 10:34:29;;;;;;;8.77;3.03;;;;;;;18.69;100.00;100840.53;4989223;28;20049;-68
2021/08/20 10:37:24;;;;;;;6.68;2.72;;;;;;;18.66;100.00;100846.78;4976941;28;20503;-67
2021/08/20 10:39:55;;;;;;;7.05;3.28;;;;;;;18.66;100.00;100843.28;4982114;28;20130;-67
2021/08/20 10:42:40;;;;;;;6.05;3.08;;;;;;;18.66;100.00;100844.03;4976655;28;20475;-67
2021/08/20 10:45:07;;;;;;;7.40;3.38;;;;;;;18.72;100.00;100844.38;4983440;28;20665;-68
2021/08/20 10:47:36;;;;;;;9.40;3.47;;;;;;;18.83;100.00;100847.78;4970104;28;20042;-68
2021/08/20 10:50:20;;;;;;;8.40;3.20;;;;;;;18.84;100.00;100861.03;4975131;28;20034;-67
2021/08/20 10:52:50;;;;;;;8.05;3.40;;;;;;;19.10;100.00;100851.41;4967811;28;20376;-68
2021/08/20 10:55:23;;;;;;;8.07;3.43;;;;;;;19.12;100.00;100856.44;4972831;28;20045;-67
2021/08/20 10:57:53;;;;;;;5.35;2.80;;;;;;;19.30;100.00;100855.03;4975350;28;20039;-68
2021/08/20 11:00:19;;;;;;;7.20;3.05;;;;;;;19.46;100.00;100858.00;4969643;28;20042;-68
2021/08/20 11:02:49;;;;;;;6.35;3.08;;;;;;;19.88;100.00;100853.16;4972308;28;20038;-68
2021/08/20 11:05:15;;;;;;;8.20;3.15;;;;;;;20.14;100.00;100855.88;4970476;28;20157;-68
2021/08/20 11:07:41;;;;;;;6.00;2.72;;;;;;;20.44;100.00;100852.31;4972845;28;20043;-68
2021/08/20 11:10:09;;;;;;;6.20;3.22;;;;;;;20.77;100.00;100850.56;4970183;28;20035;-68
2021/08/20 11:12:59;;;;;;;6.60;3.08;;;;;;;20.89;100.00;100860.88;4970953;28;20126;-68
2021/08/20 11:15:25;;;;;;;5.53;3.17;;;;;;;20.95;100.00;100861.94;4965563;28;20035;-68
2021/08/20 11:17:56;;;;;;;4.88;3.13;;;;;;;21.16;100.00;100861.53;4971776;28;20073;-68
2021/08/20 11:20:28;;;;;;;5.93;3.25;;;;;;;21.45;100.00;100860.56;4977875;28;20034;-68
2021/08/20 11:25:40;;;;;;;6.55;3.78;;;;;;;21.51;100.00;100852.59;4964535;28;20035;-68